createdAt,value
2019-05-19T00:02:11.941Z,96197.20
2019-05-19T00:05:18.706Z,96199.27
2019-05-19T00:08:25.160Z,96201.75
2019-05-19T00:11:31.795Z,96200.50
2019-05-19T00:14:38.292Z,96203.25
2019-05-19T00:17:46.943Z,96202.06
2019-05-19T00:20:53.480Z,96194.16
2019-05-19T00:24:00.062Z,96193.06
2019-05-19T00:27:07.622Z,96192.52
2019-05-19T00:30:14.739Z,96200.77
2019-05-19T00:33:22.733Z,96194.41
2019-05-19T00:36:29.290Z,96192.98
2019-05-19T00:39:35.911Z,96189.48
2019-05-19T00:42:42.578Z,96189.77
2019-05-19T00:45:49.160Z,96190.87
2019-05-19T00:48:55.828Z,96190.51
2019-05-19T00:52:02.518Z,96185.62
2019-05-19T00:55:09.664Z,96188.88
2019-05-19T00:58:17.120Z,96189.63
2019-05-19T01:01:23.639Z,96184.13
2019-05-19T01:04:32.658Z,96183.55
2019-05-19T01:07:39.369Z,96185.34
2019-05-19T01:10:46.463Z,96184.21
2019-05-19T01:13:54.134Z,96186.67
2019-05-19T01:17:00.623Z,96194.89
2019-05-19T01:20:07.496Z,96193.48
2019-05-19T01:23:14.003Z,96198.09
2019-05-19T01:26:20.414Z,96189.25
2019-05-19T01:29:27.120Z,96189.16
2019-05-19T01:32:33.582Z,96182.36
2019-05-19T01:35:40.333Z,96184.02
2019-05-19T01:38:50.859Z,96184.58
2019-05-19T01:41:57.420Z,96181.97
2019-05-19T01:45:04.076Z,96183.80
2019-05-19T01:48:10.570Z,96184.47
2019-05-19T01:51:17.013Z,96173.01
2019-05-19T01:54:23.747Z,96177.45
2019-05-19T01:57:30.172Z,96180.19
2019-05-19T02:00:36.631Z,96175.23
2019-05-19T02:03:47.474Z,96174.84
2019-05-19T02:06:53.953Z,96182.55
2019-05-19T02:10:03.500Z,96179.08
2019-05-19T02:13:10.074Z,96181.89
2019-05-19T02:16:16.632Z,96180.38
2019-05-19T02:19:23.232Z,96184.70
2019-05-19T02:22:29.653Z,96186.50
2019-05-19T02:25:36.340Z,96189.22
2019-05-19T02:28:45.972Z,96185.21
2019-05-19T02:31:52.634Z,96189.94
2019-05-19T02:34:59.093Z,96183.27
2019-05-19T02:38:05.912Z,96179.23
2019-05-19T02:41:15.596Z,96177.48
2019-05-19T02:44:23.946Z,96177.64
2019-05-19T02:47:33.084Z,96174.77
2019-05-19T02:50:51.807Z,96170.77
2019-05-19T02:53:50.113Z,96168.86
2019-05-19T02:56:57.509Z,96166.91
2019-05-19T03:00:05.693Z,96168.70
2019-05-19T03:03:12.280Z,96171.98
2019-05-19T03:06:19.788Z,96173.17
2019-05-19T03:09:26.469Z,96169.83
2019-05-19T03:12:32.867Z,96176.84
2019-05-19T03:15:42.648Z,96171.45
2019-05-19T03:18:49.123Z,96177.70
2019-05-19T03:21:55.660Z,96173.22
2019-05-19T03:25:02.196Z,96175.55
2019-05-19T03:28:08.797Z,96173.17
2019-05-19T03:31:34.380Z,96166.91
2019-05-19T03:34:40.808Z,96165.86
2019-05-19T03:37:47.247Z,96175.81
2019-05-19T03:40:53.967Z,96178.69
2019-05-19T03:44:00.513Z,96172.64
2019-05-19T03:47:07.004Z,96168.10
2019-05-19T03:50:13.439Z,96160.02
2019-05-19T03:53:19.954Z,96159.99
2019-05-19T03:56:26.490Z,96161.78
2019-05-19T03:59:33.036Z,96157.59
2019-05-19T04:02:39.573Z,96156.75
2019-05-19T04:05:46.539Z,96166.50
2019-05-19T04:08:53.055Z,96165.92
2019-05-19T04:11:59.601Z,96163.20
2019-05-19T04:15:06.605Z,96158.86
2019-05-19T04:18:13.087Z,96170.09
2019-05-19T04:21:19.704Z,96161.27
2019-05-19T04:24:26.116Z,96159.37
2019-05-19T04:27:32.568Z,96162.61
2019-05-19T04:30:39.052Z,96165.88
2019-05-19T04:33:48.577Z,96170.52
2019-05-19T04:36:55.190Z,96160.33
2019-05-19T04:40:01.680Z,96166.79
2019-05-19T04:43:11.207Z,96165.88
2019-05-19T04:46:17.630Z,96172.05
2019-05-19T04:49:24.103Z,96168.94
2019-05-19T04:52:30.627Z,96168.68
2019-05-19T04:55:37.116Z,96178.73
2019-05-19T04:58:44.779Z,96172.31
2019-05-19T05:01:51.301Z,96176.77
2019-05-19T05:04:57.741Z,96171.86
2019-05-19T05:08:04.297Z,96172.98
2019-05-19T05:11:10.797Z,96172.38
2019-05-19T05:14:17.189Z,96176.14
2019-05-19T05:17:23.642Z,96179.61
2019-05-19T05:20:30.501Z,96178.30
2019-05-19T05:23:37.081Z,96174.59
2019-05-19T05:26:44.800Z,96177.15
2019-05-19T05:29:51.271Z,96174.73
2019-05-19T05:32:57.833Z,96171.17
2019-05-19T05:36:04.398Z,96166.47
2019-05-19T05:39:10.926Z,96163.98
2019-05-19T05:42:17.484Z,96166.77
2019-05-19T05:45:24.460Z,96166.41
2019-05-19T05:48:30.996Z,96169.02
2019-05-19T05:51:37.503Z,96164.38
2019-05-19T05:54:46.854Z,96167.86
2019-05-19T05:57:55.175Z,96177.25
2019-05-19T06:01:01.623Z,96176.50
2019-05-19T06:04:08.205Z,96177.31
2019-05-19T06:07:14.867Z,96175.61
2019-05-19T06:10:21.903Z,96179.04
2019-05-19T06:13:28.288Z,96183.58
2019-05-19T06:16:34.890Z,96184.72
2019-05-19T06:19:41.557Z,96179.56
2019-05-19T06:22:56.425Z,96180.25
2019-05-19T06:25:56.505Z,96183.25
2019-05-19T06:29:03.188Z,96186.80
2019-05-19T06:32:17.375Z,96183.02
2019-05-19T06:35:23.893Z,96185.62
2019-05-19T06:38:30.389Z,96181.84
2019-05-19T06:41:36.879Z,96179.88
2019-05-19T06:44:43.588Z,96179.38
2019-05-19T06:47:51.169Z,96179.44
2019-05-19T06:50:57.604Z,96182.84
2019-05-19T06:54:04.383Z,96178.59
2019-05-19T06:57:11.095Z,96180.88
2019-05-19T07:00:19.354Z,96171.63
2019-05-19T07:03:25.850Z,96170.47
2019-05-19T07:06:34.180Z,96172.47
2019-05-19T07:09:40.689Z,96171.19
2019-05-19T07:12:47.140Z,96172.63
2019-05-19T07:15:55.273Z,96173.97
2019-05-19T07:19:01.680Z,96171.70
2019-05-19T07:22:08.138Z,96171.02
2019-05-19T07:25:14.735Z,96168.33
2019-05-19T07:28:21.347Z,96162.85
2019-05-19T07:31:27.808Z,96162.98
2019-05-19T07:34:34.341Z,96162.95
2019-05-19T07:37:40.855Z,96161.51
2019-05-19T07:40:47.379Z,96156.59
2019-05-19T07:43:55.491Z,96151.16
2019-05-19T07:47:01.971Z,96148.19
2019-05-19T07:50:08.676Z,96152.69
2019-05-19T07:53:15.272Z,96144.49
2019-05-19T07:56:21.745Z,96144.81
2019-05-19T07:59:28.274Z,96146.42
2019-05-19T08:02:35.154Z,96144.22
2019-05-19T08:05:44.727Z,96138.05
2019-05-19T08:08:51.345Z,96139.41
2019-05-19T08:11:57.713Z,96136.98
2019-05-19T08:15:04.559Z,96131.94
2019-05-19T08:18:12.685Z,96135.80
2019-05-19T08:21:19.147Z,96126.70
2019-05-19T08:24:25.724Z,96129.19
2019-05-19T08:27:32.583Z,96127.31
2019-05-19T08:30:39.168Z,96123.73
2019-05-19T08:33:48.664Z,96123.17
2019-05-19T08:36:55.156Z,96130.31
2019-05-19T08:40:02.802Z,96123.45
2019-05-19T08:43:09.340Z,96116.83
2019-05-19T08:46:16.198Z,96119.58
2019-05-19T08:49:25.282Z,96124.55
2019-05-19T08:52:34.680Z,96129.42
2019-05-19T08:55:41.185Z,96120.79
2019-05-19T08:58:49.214Z,96119.25
2019-05-19T09:01:56.776Z,96117.95
2019-05-19T09:05:03.219Z,96118.38
2019-05-19T09:08:09.683Z,96116.69
2019-05-19T09:11:16.299Z,96112.13
2019-05-19T09:14:22.779Z,96113.70
2019-05-19T09:17:30.901Z,96106.06
2019-05-19T09:20:37.363Z,96109.67
2019-05-19T09:23:44.496Z,96104.91
2019-05-19T09:26:50.976Z,96115.39
2019-05-19T09:30:01.604Z,96111.13
2019-05-19T09:33:11.976Z,96116.16
2019-05-19T09:36:18.465Z,96116.73
2019-05-19T09:39:24.938Z,96118.20
2019-05-19T09:42:31.489Z,96113.69
2019-05-19T09:45:37.954Z,96109.55
2019-05-19T09:48:45.789Z,96115.34
2019-05-19T09:51:52.269Z,96111.15
2019-05-19T09:54:58.836Z,96106.77
2019-05-19T09:58:05.420Z,96098.79
2019-05-19T10:01:11.955Z,96094.90
2019-05-19T10:04:20.343Z,96099.55
2019-05-19T10:07:26.811Z,96096.56
2019-05-19T10:11:12.554Z,96100.95
2019-05-19T10:14:19.081Z,96091.52
2019-05-19T10:17:25.652Z,96091.63
2019-05-19T10:20:32.181Z,96098.47
2019-05-19T10:23:38.885Z,96097.50
2019-05-19T10:26:46.109Z,96087.04
2019-05-19T10:29:52.532Z,96084.67
2019-05-19T10:32:59.016Z,96080.50
2019-05-19T10:36:05.783Z,96083.37
2019-05-19T10:39:12.357Z,96080.09
2019-05-19T10:42:18.898Z,96084.73
2019-05-19T10:45:25.384Z,96079.95
2019-05-19T10:48:31.994Z,96069.40
2019-05-19T10:51:40.173Z,96080.63
2019-05-19T10:54:46.681Z,96082.09
2019-05-19T10:57:53.442Z,96073.39
2019-05-19T11:00:59.926Z,96070.86
2019-05-19T11:04:06.507Z,96072.73
2019-05-19T11:07:13.225Z,96075.24
2019-05-19T11:10:20.915Z,96072.95
2019-05-19T11:13:27.413Z,96063.97
2019-05-19T11:16:33.951Z,96070.96
2019-05-19T11:19:40.411Z,96080.28
2019-05-19T11:22:47.069Z,96071.11
2019-05-19T11:25:53.410Z,96068.21
2019-05-19T11:28:59.851Z,96066.55
2019-05-19T11:32:06.408Z,96065.89
2019-05-19T11:35:12.889Z,96072.38
2019-05-19T11:38:19.170Z,96065.40
2019-05-19T11:41:25.351Z,96066.33
2019-05-19T11:44:31.584Z,96065.58
2019-05-19T11:47:37.974Z,96068.52
2019-05-19T11:50:45.065Z,96067.37
2019-05-19T11:53:51.627Z,96066.23
2019-05-19T11:56:58.199Z,96068.49
2019-05-19T12:00:07.361Z,96074.59
2019-05-19T12:03:13.573Z,96069.69
2019-05-19T12:06:20.277Z,96077.17
2019-05-19T12:09:26.783Z,96073.91
2019-05-19T12:12:33.273Z,96077.41
2019-05-19T12:15:39.391Z,96079.74
2019-05-19T12:18:47.049Z,96072.77
2019-05-19T12:21:53.536Z,96071.39
2019-05-19T12:25:01.056Z,96069.49
2019-05-19T12:28:07.747Z,96071.64
2019-05-19T12:31:16.835Z,96074.20
2019-05-19T12:34:22.116Z,96076.63
2019-05-19T12:37:28.643Z,96069.89
2019-05-19T12:40:34.804Z,96067.05
2019-05-19T12:43:40.999Z,96068.69
2019-05-19T12:46:48.841Z,96072.12
2019-05-19T12:49:55.127Z,96070.01
2019-05-19T12:53:01.366Z,96074.25
2019-05-19T12:56:07.561Z,96061.16
2019-05-19T12:59:14.775Z,96066.00
2019-05-19T13:02:21.199Z,96075.23
2019-05-19T13:05:28.898Z,96070.88
2019-05-19T13:08:35.409Z,96071.08
2019-05-19T13:11:43.887Z,96071.95
2019-05-19T13:14:50.080Z,96079.27
2019-05-19T13:17:56.481Z,96069.25
2019-05-19T13:21:03.013Z,96071.08
2019-05-19T13:24:11.102Z,96071.59
2019-05-19T13:27:17.578Z,96064.80
2019-05-19T13:30:24.236Z,96070.66
2019-05-19T13:33:30.697Z,96063.46
2019-05-19T13:36:40.203Z,96058.89
2019-05-19T13:39:47.365Z,96061.66
2019-05-19T13:42:53.513Z,96053.67
2019-05-19T13:46:00.294Z,96061.53
2019-05-19T13:49:06.853Z,96061.71
2019-05-19T13:52:13.206Z,96058.58
2019-05-19T13:55:19.844Z,96061.52
2019-05-19T13:58:26.039Z,96056.11
2019-05-19T14:01:32.250Z,96053.66
2019-05-19T14:04:38.747Z,96055.15
2019-05-19T14:07:45.606Z,96051.53
2019-05-19T14:10:55.070Z,96044.83
2019-05-19T14:14:01.309Z,96046.30
2019-05-19T14:17:07.654Z,96046.11
2019-05-19T14:20:14.238Z,96046.17
2019-05-19T14:23:20.513Z,96043.08
2019-05-19T14:26:26.787Z,96038.45
2019-05-19T14:29:35.768Z,96040.91
2019-05-19T14:32:44.052Z,96030.64
2019-05-19T14:35:50.228Z,96032.09
2019-05-19T14:39:05.059Z,96037.52
2019-05-19T14:42:13.647Z,96033.41
2019-05-19T14:45:20.937Z,96029.33
2019-05-19T14:48:27.041Z,96024.25
2019-05-19T14:51:33.455Z,96021.81
2019-05-19T14:54:39.728Z,96019.54
2019-05-19T14:57:47.000Z,96022.78
2019-05-19T15:00:53.189Z,96016.08
2019-05-19T15:03:59.495Z,96007.59
2019-05-19T15:07:06.845Z,96015.30
2019-05-19T15:10:13.627Z,96016.56
2019-05-19T15:13:20.120Z,96012.50
2019-05-19T15:16:26.358Z,96010.40
2019-05-19T15:19:32.451Z,96012.84
2019-05-19T15:22:38.716Z,96014.95
2019-05-19T15:25:45.542Z,96011.50
2019-05-19T15:28:51.710Z,96012.64
2019-05-19T15:32:00.028Z,96011.70
2019-05-19T15:35:07.010Z,96015.73
2019-05-19T15:39:26.353Z,96003.51
2019-05-19T15:42:32.513Z,96003.98
2019-05-19T15:45:42.920Z,95997.78
2019-05-19T15:48:49.170Z,95993.06
2019-05-19T15:52:02.980Z,95994.55
2019-05-19T15:55:03.750Z,95998.10
2019-05-19T15:58:16.487Z,95987.66
2019-05-19T16:01:18.045Z,95984.24
2019-05-19T16:04:25.423Z,95985.86
2019-05-19T16:07:31.861Z,95984.08
2019-05-19T16:10:38.143Z,95989.64
2019-05-19T16:13:44.879Z,95988.00
2019-05-19T16:16:51.582Z,95986.50
2019-05-19T16:19:57.692Z,95987.44
2019-05-19T16:23:04.351Z,95979.31
2019-05-19T16:26:10.684Z,95984.48
2019-05-19T16:29:16.963Z,95980.50
2019-05-19T16:32:23.413Z,95978.27
2019-05-19T16:35:29.847Z,95983.27
2019-05-19T16:38:36.353Z,95979.11
2019-05-19T16:41:46.051Z,95973.97
2019-05-19T16:44:52.303Z,95970.80
2019-05-19T16:47:58.558Z,95977.16
2019-05-19T16:51:04.908Z,95978.70
2019-05-19T16:54:15.760Z,95974.95
2019-05-19T16:57:22.045Z,95969.18
2019-05-19T17:00:29.858Z,95972.50
2019-05-19T17:03:36.098Z,95974.78
2019-05-19T17:06:43.144Z,95978.13
2019-05-19T17:09:50.645Z,95981.32
2019-05-19T17:12:57.495Z,95994.50
2019-05-19T17:16:04.104Z,95992.29
2019-05-19T17:19:10.587Z,95991.94
2019-05-19T17:22:17.076Z,95993.50
2019-05-19T17:25:23.768Z,95988.03
2019-05-19T17:28:30.424Z,95989.73
2019-05-19T17:31:36.999Z,95988.45
2019-05-19T17:34:45.844Z,95996.67
2019-05-19T17:37:53.695Z,95992.66
2019-05-19T17:41:00.194Z,95989.78
2019-05-19T17:44:06.817Z,95996.77
2019-05-19T17:47:13.334Z,95987.90
2019-05-19T17:50:34.796Z,95992.25
2019-05-19T17:53:44.790Z,95995.20
2019-05-19T17:56:53.416Z,96002.77
2019-05-19T18:00:02.259Z,96000.41
2019-05-19T18:03:10.674Z,96001.05
2019-05-19T18:06:17.349Z,95996.84
2019-05-19T18:09:24.049Z,96000.48
2019-05-19T18:12:31.709Z,95997.57
2019-05-19T18:15:39.092Z,95998.86
2019-05-19T18:18:47.848Z,95992.70
2019-05-19T18:21:57.861Z,95987.52
2019-05-19T18:25:04.608Z,95997.31
2019-05-19T18:28:11.065Z,95990.63
2019-05-19T18:31:17.538Z,95990.86
2019-05-19T18:34:23.959Z,95995.11
2019-05-19T18:37:32.396Z,95991.13
2019-05-19T18:40:39.028Z,95989.50
2019-05-19T18:43:46.888Z,95994.16
2019-05-19T18:46:53.409Z,95997.43
2019-05-19T18:51:09.482Z,96000.77
2019-05-19T18:54:15.973Z,96000.83
2019-05-19T18:57:22.430Z,96000.92
2019-05-19T19:00:40.255Z,95998.20
2019-05-19T19:03:47.230Z,95996.10
2019-05-19T19:06:54.096Z,95999.03
2019-05-19T19:10:00.497Z,96002.30
2019-05-19T19:13:08.135Z,96001.89
2019-05-19T19:16:14.735Z,96007.97
2019-05-19T19:19:21.343Z,96006.55
2019-05-19T19:22:28.045Z,96012.07
2019-05-19T19:25:37.567Z,96006.63
2019-05-19T19:28:46.332Z,96008.05
2019-05-19T19:31:53.103Z,96005.99
2019-05-19T19:34:59.490Z,96013.42
2019-05-19T19:38:06.846Z,96011.90
2019-05-19T19:41:13.797Z,96008.84
2019-05-19T19:44:20.953Z,96011.49
2019-05-19T19:47:27.950Z,96013.97
2019-05-19T19:50:37.114Z,96015.47
2019-05-19T19:53:45.266Z,96014.71
2019-05-19T19:56:52.142Z,96007.30
2019-05-19T19:59:59.376Z,96012.00
2019-05-19T20:03:06.805Z,96011.95
2019-05-19T20:06:16.358Z,96011.17
2019-05-19T20:09:23.212Z,96008.59
2019-05-19T20:12:31.975Z,96008.67
2019-05-19T20:15:42.027Z,96009.66
2019-05-19T20:18:48.689Z,96007.89
2019-05-19T20:21:55.362Z,96002.94
2019-05-19T20:25:01.764Z,96007.99
2019-05-19T20:28:08.407Z,96004.25
2019-05-19T20:31:14.975Z,96003.00
2019-05-19T20:34:21.478Z,96006.57
2019-05-19T20:37:28.104Z,96007.13
2019-05-19T20:40:34.616Z,96008.61
2019-05-19T20:43:41.149Z,96001.84
2019-05-19T20:46:47.721Z,95997.95
2019-05-19T20:49:56.301Z,95996.84
2019-05-19T20:53:02.893Z,96000.42
2019-05-19T20:56:09.367Z,95998.86
2019-05-19T20:59:19.019Z,95990.91
2019-05-19T21:02:25.644Z,95998.17
2019-05-19T21:05:32.271Z,95989.61
2019-05-19T21:08:39.066Z,95987.80
2019-05-19T21:11:47.568Z,95991.13
2019-05-19T21:14:54.140Z,95996.45
2019-05-19T21:18:01.099Z,95991.13
2019-05-19T21:21:07.669Z,95986.96
2019-05-19T21:24:14.197Z,95993.93
2019-05-19T21:27:37.482Z,95988.98
2019-05-19T21:30:47.656Z,95996.20
2019-05-19T21:33:54.150Z,95997.66
2019-05-19T21:37:00.749Z,95999.42
2019-05-19T21:40:08.539Z,96013.08
2019-05-19T21:43:15.083Z,96004.88
2019-05-19T21:46:21.641Z,96005.25
2019-05-19T21:49:28.119Z,95998.92
2019-05-19T21:52:34.671Z,95995.30
2019-05-19T21:55:41.100Z,95994.08
2019-05-19T21:58:51.324Z,96004.25
2019-05-19T22:01:57.789Z,96000.77
2019-05-19T22:05:04.603Z,96013.11
2019-05-19T22:08:15.164Z,96002.61
2019-05-19T22:11:21.594Z,96003.27
2019-05-19T22:14:28.085Z,95996.20
2019-05-19T22:17:34.729Z,96000.77
2019-05-19T22:20:43.414Z,96002.56
2019-05-19T22:23:50.971Z,96004.28
2019-05-19T22:26:57.483Z,95999.66
2019-05-19T22:30:05.909Z,96004.19
2019-05-19T22:33:12.440Z,95996.23
2019-05-19T22:36:20.183Z,95992.70
2019-05-19T22:39:26.589Z,95994.67
2019-05-19T22:42:33.185Z,95997.17
2019-05-19T22:45:39.928Z,95986.18
2019-05-19T22:48:46.529Z,95998.34
2019-05-19T22:51:53.144Z,95996.41
2019-05-19T22:55:02.093Z,95992.15
2019-05-19T22:58:08.685Z,96001.87
2019-05-19T23:01:16.917Z,96000.21
2019-05-19T23:04:23.925Z,95997.14
2019-05-19T23:07:30.502Z,95996.66
2019-05-19T23:10:39.547Z,96005.45
2019-05-19T23:13:47.125Z,96007.38
2019-05-19T23:16:55.732Z,96008.84
2019-05-19T23:20:02.222Z,96012.77
2019-05-19T23:23:10.606Z,96017.78
2019-05-19T23:26:17.132Z,96022.52
2019-05-19T23:29:23.670Z,96022.27
2019-05-19T23:32:31.701Z,96014.29
2019-05-19T23:35:38.154Z,96013.95
2019-05-19T23:38:46.810Z,96022.19
2019-05-19T23:41:53.572Z,96021.22
2019-05-19T23:45:00.107Z,96017.45
2019-05-19T23:48:08.732Z,96017.99
2019-05-19T23:51:15.223Z,96012.48
2019-05-19T23:54:21.949Z,96018.34
2019-05-19T23:57:28.609Z,96020.32
